createdAt,value
2023-05-05T00:02:05.426Z,98939.95
2023-05-05T00:04:33.052Z,98939.89
2023-05-05T00:07:00.735Z,98942.74
2023-05-05T00:09:28.327Z,98947.56
2023-05-05T00:11:55.902Z,98946.30
2023-05-05T00:14:23.508Z,98944.58
2023-05-05T00:16:51.139Z,98941.17
2023-05-05T00:19:18.853Z,98940.45
2023-05-05T00:21:46.432Z,98933.63
2023-05-05T00:24:14.062Z,98930.70
2023-05-05T00:26:41.620Z,98933.35
2023-05-05T00:29:09.199Z,98927.33
2023-05-05T00:31:36.858Z,98925.67
2023-05-05T00:34:04.470Z,98927.05
2023-05-05T00:36:32.071Z,98923.52
2023-05-05T00:38:59.616Z,98917.44
2023-05-05T00:41:27.198Z,98913.02
2023-05-05T00:43:54.778Z,98913.52
2023-05-05T00:46:30.297Z,98903.12
2023-05-05T00:48:58.065Z,98903.80
2023-05-05T00:51:25.907Z,98900.43
2023-05-05T00:53:53.629Z,98899.97
2023-05-05T00:56:22.077Z,98900.36
2023-05-05T00:58:49.790Z,98899.63
2023-05-05T01:01:17.663Z,98903.94
2023-05-05T01:03:45.407Z,98906.40
2023-05-05T01:06:42.127Z,98912.79
2023-05-05T01:09:31.274Z,98912.61
2023-05-05T01:12:10.051Z,98915.11
2023-05-05T01:14:46.923Z,98913.52
2023-05-05T01:17:21.052Z,98916.80
2023-05-05T01:19:51.414Z,98914.27
2023-05-05T01:22:24.699Z,98913.50
2023-05-05T01:25:49.395Z,98911.76
2023-05-05T01:28:45.170Z,98910.69
2023-05-05T01:31:48.164Z,98910.11
2023-05-05T01:34:19.297Z,98904.71
2023-05-05T01:36:53.183Z,98907.06
2023-05-05T01:39:23.998Z,98902.64
2023-05-05T01:41:56.715Z,98905.64
2023-05-05T01:44:25.039Z,98905.40
2023-05-05T01:46:54.316Z,98905.64
2023-05-05T01:49:22.127Z,98908.90
2023-05-05T01:51:49.979Z,98910.27
2023-05-05T01:54:19.372Z,98904.11
2023-05-05T01:56:49.159Z,98903.92
2023-05-05T01:59:17.655Z,98904.59
2023-05-05T02:01:47.231Z,98906.90
2023-05-05T02:04:17.679Z,98904.94
2023-05-05T02:06:47.326Z,98900.45
2023-05-05T02:09:15.525Z,98899.05
2023-05-05T02:11:43.494Z,98898.96
2023-05-05T02:14:12.520Z,98894.11
2023-05-05T02:16:41.722Z,98890.28
2023-05-05T02:19:10.229Z,98889.31
2023-05-05T02:21:38.000Z,98892.27
2023-05-05T02:24:06.101Z,98895.05
2023-05-05T02:26:40.542Z,98895.10
2023-05-05T02:29:15.207Z,98894.28
2023-05-05T02:31:46.746Z,98897.36
2023-05-05T02:34:22.434Z,98894.20
2023-05-05T02:36:53.436Z,98892.62
2023-05-05T02:39:27.460Z,98893.05
2023-05-05T02:41:56.334Z,98893.02
2023-05-05T02:44:25.946Z,98890.46
2023-05-05T02:46:54.458Z,98890.78
2023-05-05T02:49:22.170Z,98889.20
2023-05-05T02:51:50.219Z,98890.17
2023-05-05T02:54:18.020Z,98885.22
2023-05-05T02:56:53.796Z,98885.36
2023-05-05T02:59:40.985Z,98887.42
2023-05-05T03:02:31.346Z,98889.52
2023-05-05T03:05:06.536Z,98890.97
2023-05-05T03:07:53.814Z,98888.98
2023-05-05T03:10:27.652Z,98886.66
2023-05-05T03:12:58.446Z,98887.74
2023-05-05T03:15:31.091Z,98887.81
2023-05-05T03:17:59.129Z,98884.18
2023-05-05T03:20:27.288Z,98884.09
2023-05-05T03:22:55.232Z,98885.02
2023-05-05T03:25:22.864Z,98882.33
2023-05-05T03:27:50.412Z,98887.27
2023-05-05T03:30:18.159Z,98889.88
2023-05-05T03:32:45.771Z,98894.67
2023-05-05T03:35:13.431Z,98893.84
2023-05-05T03:37:41.024Z,98896.02
2023-05-05T03:40:09.236Z,98897.19
2023-05-05T03:42:36.939Z,98898.46
2023-05-05T03:45:04.802Z,98898.88
2023-05-05T03:47:32.388Z,98901.77
2023-05-05T03:50:00.016Z,98900.61
2023-05-05T03:52:27.559Z,98907.27
2023-05-05T03:54:55.166Z,98911.18
2023-05-05T03:57:22.750Z,98906.45
2023-05-05T03:59:50.365Z,98905.60
2023-05-05T04:02:18.893Z,98905.23
2023-05-05T04:04:46.670Z,98899.79
2023-05-05T04:07:14.191Z,98901.41
2023-05-05T04:09:41.759Z,98899.27
2023-05-05T04:12:09.285Z,98898.89
2023-05-05T04:14:37.143Z,98902.41
2023-05-05T04:17:05.116Z,98903.91
2023-05-05T04:19:33.088Z,98905.94
2023-05-05T04:22:00.932Z,98905.52
2023-05-05T04:24:28.560Z,98907.98
2023-05-05T04:26:56.290Z,98906.17
2023-05-05T04:29:23.830Z,98906.92
2023-05-05T04:31:51.397Z,98914.81
2023-05-05T04:34:19.188Z,98915.74
2023-05-05T04:36:46.765Z,98914.96
2023-05-05T04:39:14.346Z,98919.42
2023-05-05T04:41:41.939Z,98924.88
2023-05-05T04:44:09.494Z,98927.40
2023-05-05T04:46:37.152Z,98930.91
2023-05-05T04:49:04.749Z,98931.16
2023-05-05T04:51:32.412Z,98930.05
2023-05-05T04:54:00.006Z,98930.42
2023-05-05T04:56:27.576Z,98930.77
2023-05-05T04:58:55.122Z,98932.81
2023-05-05T05:01:22.724Z,98937.61
2023-05-05T05:03:50.392Z,98939.35
2023-05-05T05:06:18.188Z,98942.59
2023-05-05T05:08:45.828Z,98945.35
2023-05-05T05:11:13.430Z,98946.89
2023-05-05T05:13:41.052Z,98953.07
2023-05-05T05:16:08.810Z,98954.06
2023-05-05T05:18:36.397Z,98955.11
2023-05-05T05:21:04.055Z,98957.79
2023-05-05T05:23:31.606Z,98955.11
2023-05-05T05:25:59.222Z,98953.83
2023-05-05T05:28:26.810Z,98958.54
2023-05-05T05:30:54.398Z,98961.63
2023-05-05T05:33:22.019Z,98960.11
2023-05-05T05:35:49.638Z,98960.45
2023-05-05T05:38:17.273Z,98959.71
2023-05-05T05:40:44.822Z,98961.29
2023-05-05T05:43:12.413Z,98957.36
2023-05-05T05:45:40.051Z,98958.73
2023-05-05T05:48:07.709Z,98962.78
2023-05-05T05:50:35.350Z,98962.46
2023-05-05T05:53:03.023Z,98967.73
2023-05-05T05:55:30.650Z,98969.75
2023-05-05T05:57:58.240Z,98967.31
2023-05-05T06:00:25.897Z,98968.61
2023-05-05T06:02:53.586Z,98967.39
2023-05-05T06:05:21.175Z,98969.33
2023-05-05T06:07:48.967Z,98974.27
2023-05-05T06:10:27.333Z,98971.01
2023-05-05T06:12:55.345Z,98974.80
2023-05-05T06:15:22.967Z,98973.77
2023-05-05T06:17:50.574Z,98972.82
2023-05-05T06:20:18.298Z,98967.45
2023-05-05T06:22:45.890Z,98969.91
2023-05-05T06:25:13.435Z,98969.14
2023-05-05T06:27:41.009Z,98970.58
2023-05-05T06:30:09.107Z,98968.33
2023-05-05T06:32:36.923Z,98966.46
2023-05-05T06:35:04.880Z,98966.99
2023-05-05T06:37:32.534Z,98967.70
2023-05-05T06:40:00.201Z,98962.70
2023-05-05T06:42:27.829Z,98966.98
2023-05-05T06:44:55.401Z,98969.33
2023-05-05T06:47:23.075Z,98968.82
2023-05-05T06:49:50.666Z,98967.05
2023-05-05T06:52:18.385Z,98963.75
2023-05-05T06:54:45.964Z,98965.27
2023-05-05T06:57:13.537Z,98962.29
2023-05-05T06:59:41.088Z,98959.86
2023-05-05T07:02:08.700Z,98962.96
2023-05-05T07:04:36.307Z,98962.83
2023-05-05T07:07:03.859Z,98956.66
2023-05-05T07:09:31.411Z,98954.98
2023-05-05T07:11:59.025Z,98957.66
2023-05-05T07:14:26.604Z,98961.70
2023-05-05T07:16:54.290Z,98953.11
2023-05-05T07:19:21.926Z,98952.77
2023-05-05T07:21:49.486Z,98949.71
2023-05-05T07:24:17.041Z,98950.01
2023-05-05T07:26:44.636Z,98942.39
2023-05-05T07:29:12.268Z,98943.55
2023-05-05T07:31:39.909Z,98943.37
2023-05-05T07:34:07.489Z,98940.81
2023-05-05T07:36:35.281Z,98938.96
2023-05-05T07:39:02.960Z,98934.77
2023-05-05T07:41:30.596Z,98934.86
2023-05-05T07:43:58.206Z,98942.80
2023-05-05T07:46:25.867Z,98943.42
2023-05-05T07:48:53.410Z,98938.56
2023-05-05T07:51:20.988Z,98937.79
2023-05-05T07:53:48.519Z,98939.20
2023-05-05T07:56:16.144Z,98940.52
2023-05-05T07:58:43.769Z,98935.11
2023-05-05T08:01:11.358Z,98941.04
2023-05-05T08:03:39.184Z,98936.80
2023-05-05T08:06:08.702Z,98937.71
2023-05-05T08:08:36.553Z,98938.95
2023-05-05T08:11:04.429Z,98939.91
2023-05-05T08:13:32.054Z,98937.53
2023-05-05T08:15:59.946Z,98933.64
2023-05-05T08:18:27.585Z,98936.73
2023-05-05T08:20:55.147Z,98936.48
2023-05-05T08:23:22.742Z,98939.45
2023-05-05T08:25:50.322Z,98933.14
2023-05-05T08:28:17.952Z,98933.05
2023-05-05T08:30:45.485Z,98933.03
2023-05-05T08:33:13.098Z,98937.13
2023-05-05T08:35:40.731Z,98940.76
2023-05-05T08:38:08.370Z,98941.42
2023-05-05T08:40:38.425Z,98936.85
2023-05-05T08:43:06.091Z,98935.45
2023-05-05T08:45:33.920Z,98933.21
2023-05-05T08:48:04.065Z,98931.27
2023-05-05T08:50:32.470Z,98931.98
2023-05-05T08:53:10.655Z,98932.73
2023-05-05T08:55:56.246Z,98930.48
2023-05-05T08:58:25.211Z,98925.63
2023-05-05T09:00:54.146Z,98924.01
2023-05-05T09:03:22.156Z,98921.65
2023-05-05T09:05:50.959Z,98919.88
2023-05-05T09:08:18.655Z,98922.34
2023-05-05T09:10:46.671Z,98921.71
2023-05-05T09:13:17.682Z,98921.27
2023-05-05T09:15:45.283Z,98920.55
2023-05-05T09:18:12.925Z,98921.89
2023-05-05T09:20:40.991Z,98921.30
2023-05-05T09:23:16.624Z,98917.70
2023-05-05T09:25:45.104Z,98920.27
2023-05-05T09:28:14.609Z,98918.67
2023-05-05T09:30:43.116Z,98921.63
2023-05-05T09:33:10.683Z,98921.31
2023-05-05T09:35:48.052Z,98918.70
2023-05-05T09:38:15.782Z,98918.63
2023-05-05T09:40:54.004Z,98920.08
2023-05-05T09:43:23.300Z,98922.67
2023-05-05T09:45:51.222Z,98925.77
2023-05-05T09:48:26.669Z,98925.23
2023-05-05T09:50:55.749Z,98920.39
2023-05-05T09:53:24.541Z,98922.13
2023-05-05T09:55:52.982Z,98922.34
2023-05-05T09:58:25.715Z,98919.96
2023-05-05T10:00:54.429Z,98926.00
2023-05-05T10:03:22.694Z,98923.11
2023-05-05T10:05:51.527Z,98921.41
2023-05-05T10:08:21.161Z,98920.15
2023-05-05T10:11:00.125Z,98920.74
2023-05-05T10:13:28.563Z,98924.84
2023-05-05T10:15:57.687Z,98917.25
2023-05-05T10:18:27.543Z,98913.35
2023-05-05T10:21:00.256Z,98917.02
2023-05-05T10:23:37.973Z,98916.98
2023-05-05T10:26:13.114Z,98912.50
2023-05-05T10:28:43.798Z,98914.74
2023-05-05T10:31:26.012Z,98914.23
2023-05-05T10:34:03.290Z,98921.34
2023-05-05T10:36:31.734Z,98915.61
2023-05-05T10:39:00.038Z,98909.91
2023-05-05T10:41:28.655Z,98910.17
2023-05-05T10:43:56.546Z,98903.86
2023-05-05T10:46:26.852Z,98903.23
2023-05-05T10:49:03.168Z,98894.96
2023-05-05T10:51:49.856Z,98898.39
2023-05-05T10:54:22.600Z,98902.19
2023-05-05T10:56:51.308Z,98899.07
2023-05-05T10:59:37.112Z,98898.55
2023-05-05T11:02:27.450Z,98894.52
2023-05-05T11:05:15.523Z,98895.45
2023-05-05T11:07:47.486Z,98894.34
2023-05-05T11:10:16.652Z,98891.55
2023-05-05T11:12:56.484Z,98890.73
2023-05-05T11:15:24.015Z,98891.44
2023-05-05T11:17:52.894Z,98887.98
2023-05-05T11:20:35.673Z,98884.36
2023-05-05T11:23:03.267Z,98883.23
2023-05-05T11:25:37.229Z,98879.02
2023-05-05T11:28:06.985Z,98882.86
2023-05-05T11:30:35.958Z,98881.92
2023-05-05T11:33:28.282Z,98877.67
2023-05-05T11:36:01.776Z,98876.48
2023-05-05T11:38:36.364Z,98876.27
2023-05-05T11:41:19.953Z,98873.50
2023-05-05T11:43:47.604Z,98876.31
2023-05-05T11:46:16.466Z,98870.94
2023-05-05T11:48:53.182Z,98873.65
2023-05-05T11:51:20.748Z,98879.42
2023-05-05T11:53:49.197Z,98872.42
2023-05-05T11:56:16.782Z,98870.19
2023-05-05T11:58:48.439Z,98865.91
2023-05-05T12:01:16.225Z,98870.13
2023-05-05T12:03:44.116Z,98869.19
2023-05-05T12:06:13.010Z,98861.81
2023-05-05T12:08:41.571Z,98856.77
2023-05-05T12:11:10.798Z,98850.04
2023-05-05T12:13:38.411Z,98846.72
2023-05-05T12:16:09.618Z,98848.24
2023-05-05T12:18:37.354Z,98851.45
2023-05-05T12:21:22.100Z,98853.89
2023-05-05T12:23:49.827Z,98852.80
2023-05-05T12:26:31.100Z,98853.88
2023-05-05T12:29:00.339Z,98853.19
2023-05-05T12:31:41.540Z,98850.92
2023-05-05T12:34:10.658Z,98842.08
2023-05-05T12:36:38.933Z,98855.81
2023-05-05T12:39:06.628Z,98855.22
2023-05-05T12:41:34.695Z,98847.13
2023-05-05T12:44:02.723Z,98850.46
2023-05-05T12:46:30.581Z,98848.98
2023-05-05T12:49:03.312Z,98843.84
2023-05-05T12:51:32.186Z,98842.98
2023-05-05T12:54:05.807Z,98834.80
2023-05-05T12:56:47.603Z,98834.63
2023-05-05T12:59:21.335Z,98832.82
2023-05-05T13:01:54.361Z,98830.14
2023-05-05T13:04:26.220Z,98830.35
2023-05-05T13:07:13.816Z,98820.35
2023-05-05T13:09:41.883Z,98822.21
2023-05-05T13:12:09.939Z,98818.86
2023-05-05T13:14:38.513Z,98817.77
2023-05-05T13:17:06.904Z,98816.50
2023-05-05T13:19:35.037Z,98815.46
2023-05-05T13:22:02.788Z,98811.59
2023-05-05T13:24:42.791Z,98815.33
2023-05-05T13:27:18.250Z,98808.98
2023-05-05T13:29:46.116Z,98807.27
2023-05-05T13:32:14.053Z,98806.27
2023-05-05T13:34:41.762Z,98801.00
2023-05-05T13:37:09.716Z,98796.73
2023-05-05T13:39:37.294Z,98794.36
2023-05-05T13:42:05.156Z,98787.75
2023-05-05T13:44:32.805Z,98784.02
2023-05-05T13:47:00.658Z,98780.71
2023-05-05T13:49:28.419Z,98779.19
2023-05-05T13:51:56.078Z,98779.47
2023-05-05T13:54:23.743Z,98775.89
2023-05-05T13:56:51.630Z,98774.52
2023-05-05T13:59:19.519Z,98771.28
2023-05-05T14:01:47.202Z,98770.59
2023-05-05T14:04:14.866Z,98772.21
2023-05-05T14:06:42.703Z,98771.92
2023-05-05T14:09:10.377Z,98769.31
2023-05-05T14:11:38.081Z,98768.70
2023-05-05T14:14:05.819Z,98761.73
2023-05-05T14:16:33.563Z,98766.02
2023-05-05T14:19:01.303Z,98757.06
2023-05-05T14:21:29.064Z,98756.27
2023-05-05T14:23:56.629Z,98756.88
2023-05-05T14:26:24.450Z,98753.91
2023-05-05T14:28:52.209Z,98753.64
2023-05-05T14:31:20.258Z,98759.91
2023-05-05T14:33:47.876Z,98759.23
2023-05-05T14:36:15.505Z,98762.30
2023-05-05T14:38:43.189Z,98762.77
2023-05-05T14:41:10.866Z,98764.83
2023-05-05T14:43:38.562Z,98761.30
2023-05-05T14:46:06.511Z,98762.84
2023-05-05T14:48:34.836Z,98761.70
2023-05-05T14:51:02.493Z,98764.70
2023-05-05T14:53:30.395Z,98760.80
2023-05-05T14:55:58.028Z,98763.94
2023-05-05T14:58:25.644Z,98765.25
2023-05-05T15:00:53.213Z,98756.30
2023-05-05T15:03:20.844Z,98761.55
2023-05-05T15:05:48.480Z,98762.29
2023-05-05T15:08:15.998Z,98763.69
2023-05-05T15:10:43.493Z,98762.70
2023-05-05T15:13:11.777Z,98765.77
2023-05-05T15:15:39.526Z,98761.69
2023-05-05T15:18:07.221Z,98757.42
2023-05-05T15:20:34.755Z,98757.39
2023-05-05T15:23:02.312Z,98756.27
2023-05-05T15:25:29.897Z,98759.35
2023-05-05T15:27:57.445Z,98753.43
2023-05-05T15:30:25.161Z,98752.09
2023-05-05T15:32:53.686Z,98754.51
2023-05-05T15:35:21.248Z,98750.30
2023-05-05T15:37:48.829Z,98749.85
2023-05-05T15:40:16.345Z,98749.48
2023-05-05T15:42:43.856Z,98745.93
2023-05-05T15:45:11.586Z,98744.20
2023-05-05T15:47:39.180Z,98745.95
2023-05-05T15:50:07.723Z,98738.55
2023-05-05T15:52:35.279Z,98738.77
2023-05-05T15:55:02.966Z,98730.68
2023-05-05T15:57:30.568Z,98731.89
2023-05-05T15:59:58.143Z,98732.35
2023-05-05T16:02:25.757Z,98726.63
2023-05-05T16:04:53.330Z,98730.85
2023-05-05T16:07:20.839Z,98732.27
2023-05-05T16:09:48.341Z,98724.71
2023-05-05T16:12:15.903Z,98724.63
2023-05-05T16:14:43.443Z,98723.33
2023-05-05T16:17:11.005Z,98720.76
2023-05-05T16:19:38.847Z,98719.41
2023-05-05T16:22:06.487Z,98719.33
2023-05-05T16:24:34.058Z,98718.75
2023-05-05T16:27:01.599Z,98721.41
2023-05-05T16:29:29.146Z,98721.48
2023-05-05T16:31:56.761Z,98717.10
2023-05-05T16:34:24.583Z,98718.80
2023-05-05T16:36:52.129Z,98722.90
2023-05-05T16:39:19.809Z,98725.66
2023-05-05T16:41:47.337Z,98724.98
2023-05-05T16:44:14.988Z,98719.30
2023-05-05T16:46:42.578Z,98723.61
2023-05-05T16:49:10.176Z,98724.70
2023-05-05T16:51:37.701Z,98728.84
2023-05-05T16:54:05.284Z,98725.77
2023-05-05T16:56:32.822Z,98721.58
2023-05-05T16:59:00.341Z,98722.05
2023-05-05T17:01:27.911Z,98720.61
2023-05-05T17:03:55.529Z,98720.16
2023-05-05T17:06:23.062Z,98726.91
2023-05-05T17:08:50.558Z,98725.91
2023-05-05T17:11:18.223Z,98724.98
2023-05-05T17:13:45.755Z,98728.50
2023-05-05T17:16:13.385Z,98728.72
2023-05-05T17:18:40.924Z,98726.01
2023-05-05T17:21:08.451Z,98725.05
2023-05-05T17:23:35.965Z,98722.58
2023-05-05T17:26:03.564Z,98727.05
2023-05-05T17:28:31.106Z,98735.10
2023-05-05T17:30:58.632Z,98739.45
2023-05-05T17:33:26.214Z,98740.70
2023-05-05T17:35:54.531Z,98742.48
2023-05-05T17:38:22.117Z,98745.41
2023-05-05T17:40:49.646Z,98745.44
2023-05-05T17:43:17.182Z,98745.81
2023-05-05T17:45:44.709Z,98747.48
2023-05-05T17:48:12.300Z,98750.66
2023-05-05T17:50:41.358Z,98750.92
2023-05-05T17:53:10.862Z,98748.95
2023-05-05T17:55:38.480Z,98754.17
2023-05-05T17:58:06.040Z,98748.86
2023-05-05T18:00:33.603Z,98747.89
2023-05-05T18:03:01.282Z,98748.02
2023-05-05T18:05:29.680Z,98744.68
2023-05-05T18:07:57.239Z,98744.34
2023-05-05T18:10:25.556Z,98754.44
2023-05-05T18:12:53.108Z,98748.62
2023-05-05T18:15:20.696Z,98755.10
2023-05-05T18:17:48.326Z,98755.11
2023-05-05T18:20:15.975Z,98758.84
2023-05-05T18:22:43.626Z,98758.80
2023-05-05T18:25:11.439Z,98761.10
2023-05-05T18:27:39.895Z,98761.56
2023-05-05T18:30:08.069Z,98760.88
2023-05-05T18:32:35.626Z,98760.17
2023-05-05T18:35:03.503Z,98755.77
2023-05-05T18:37:31.092Z,98760.55
2023-05-05T18:39:58.640Z,98761.09
2023-05-05T18:42:26.333Z,98760.38
2023-05-05T18:44:53.871Z,98764.62
2023-05-05T18:47:21.368Z,98762.54
2023-05-05T18:49:48.894Z,98761.40
2023-05-05T18:52:16.415Z,98759.76
2023-05-05T18:54:43.976Z,98754.98
2023-05-05T18:57:11.602Z,98760.81
2023-05-05T18:59:39.166Z,98761.92
2023-05-05T19:02:06.775Z,98765.33
2023-05-05T19:04:34.384Z,98766.67
2023-05-05T19:07:01.917Z,98769.84
2023-05-05T19:09:29.499Z,98769.95
2023-05-05T19:11:57.047Z,98766.64
2023-05-05T19:14:24.831Z,98764.98
2023-05-05T19:16:52.599Z,98765.80
2023-05-05T19:19:20.370Z,98763.78
2023-05-05T19:21:48.383Z,98764.33
2023-05-05T19:24:15.934Z,98764.11
2023-05-05T19:26:43.480Z,98762.21
2023-05-05T19:29:10.999Z,98763.65
2023-05-05T19:31:38.609Z,98764.21
2023-05-05T19:34:06.203Z,98762.02
2023-05-05T19:36:34.504Z,98762.34
2023-05-05T19:39:03.984Z,98757.48
2023-05-05T19:41:31.637Z,98754.07
2023-05-05T19:43:59.146Z,98750.83
2023-05-05T19:46:26.842Z,98746.86
2023-05-05T19:48:54.588Z,98752.33
2023-05-05T19:51:22.181Z,98752.05
2023-05-05T19:53:49.716Z,98753.41
2023-05-05T19:56:17.728Z,98755.42
2023-05-05T19:58:59.493Z,98759.55
2023-05-05T20:01:28.973Z,98760.11
2023-05-05T20:03:56.979Z,98763.59
2023-05-05T20:06:24.911Z,98769.73
2023-05-05T20:08:52.716Z,98765.50
2023-05-05T20:11:20.448Z,98763.01
2023-05-05T20:13:49.674Z,98760.75
2023-05-05T20:16:18.017Z,98756.90
2023-05-05T20:18:45.576Z,98755.17
2023-05-05T20:21:13.534Z,98751.58
2023-05-05T20:23:41.059Z,98755.07
2023-05-05T20:26:08.798Z,98752.61
2023-05-05T20:28:36.480Z,98753.20
2023-05-05T20:31:04.013Z,98753.95
2023-05-05T20:33:31.658Z,98755.44
2023-05-05T20:35:59.212Z,98754.84
2023-05-05T20:38:26.895Z,98753.73
2023-05-05T20:40:54.428Z,98753.33
2023-05-05T20:43:21.962Z,98752.09
2023-05-05T20:45:49.489Z,98752.91
2023-05-05T20:48:17.323Z,98752.06
2023-05-05T20:50:44.860Z,98754.41
2023-05-05T20:53:12.596Z,98750.09
2023-05-05T20:55:40.195Z,98748.38
2023-05-05T20:58:07.753Z,98748.41
2023-05-05T21:00:35.583Z,98747.77
2023-05-05T21:03:03.394Z,98743.89
2023-05-05T21:05:31.013Z,98745.36
2023-05-05T21:08:00.626Z,98745.67
2023-05-05T21:10:28.868Z,98741.89
2023-05-05T21:12:56.545Z,98742.94
2023-05-05T21:15:24.287Z,98749.63
2023-05-05T21:17:51.913Z,98747.31
2023-05-05T21:20:20.111Z,98741.89
2023-05-05T21:22:47.674Z,98736.77
2023-05-05T21:25:17.936Z,98732.55
2023-05-05T21:27:47.261Z,98735.90
2023-05-05T21:30:15.810Z,98733.63
2023-05-05T21:32:43.686Z,98736.25
2023-05-05T21:35:11.246Z,98734.66
2023-05-05T21:37:39.549Z,98732.42
2023-05-05T21:40:08.968Z,98728.86
2023-05-05T21:42:36.712Z,98728.39
2023-05-05T21:45:04.616Z,98724.73
2023-05-05T21:47:32.242Z,98723.13
2023-05-05T21:49:59.839Z,98718.63
2023-05-05T21:52:27.477Z,98724.52
2023-05-05T21:54:55.048Z,98724.27
2023-05-05T21:57:22.615Z,98729.17
2023-05-05T21:59:50.148Z,98722.59
2023-05-05T22:02:17.794Z,98720.99
2023-05-05T22:04:45.364Z,98723.99
2023-05-05T22:07:12.899Z,98724.42
2023-05-05T22:09:40.487Z,98723.14
2023-05-05T22:12:08.033Z,98718.94
2023-05-05T22:14:35.897Z,98717.94
2023-05-05T22:17:03.429Z,98716.74
2023-05-05T22:19:31.058Z,98718.61
2023-05-05T22:21:58.605Z,98719.88
2023-05-05T22:24:26.234Z,98720.94
2023-05-05T22:26:53.765Z,98710.90
2023-05-05T22:29:21.339Z,98709.71
2023-05-05T22:31:49.189Z,98705.11
2023-05-05T22:34:16.736Z,98704.75
2023-05-05T22:36:44.334Z,98704.21
2023-05-05T22:39:11.908Z,98703.64
2023-05-05T22:41:39.508Z,98702.88
2023-05-05T22:44:07.248Z,98704.54
2023-05-05T22:46:34.949Z,98702.38
2023-05-05T22:49:02.824Z,98704.73
2023-05-05T22:51:30.391Z,98702.85
2023-05-05T22:53:57.882Z,98700.11
2023-05-05T22:56:25.461Z,98700.29
2023-05-05T22:58:53.008Z,98698.06
2023-05-05T23:01:20.546Z,98695.34
2023-05-05T23:03:48.344Z,98690.84
2023-05-05T23:06:15.938Z,98685.86
2023-05-05T23:08:43.476Z,98684.43
2023-05-05T23:11:11.030Z,98681.66
2023-05-05T23:13:38.608Z,98679.60
2023-05-05T23:16:06.530Z,98676.89
2023-05-05T23:18:34.094Z,98678.33
2023-05-05T23:21:01.746Z,98678.29
2023-05-05T23:23:29.891Z,98677.77
2023-05-05T23:25:57.453Z,98677.54
2023-05-05T23:28:24.972Z,98678.66
2023-05-05T23:30:52.769Z,98678.28
2023-05-05T23:33:20.430Z,98683.17
2023-05-05T23:35:48.105Z,98683.25
2023-05-05T23:38:15.702Z,98680.79
2023-05-05T23:40:43.216Z,98682.11
2023-05-05T23:43:10.767Z,98679.86
2023-05-05T23:45:38.308Z,98684.25
2023-05-05T23:48:06.963Z,98679.02
2023-05-05T23:50:34.579Z,98674.35
2023-05-05T23:53:02.104Z,98675.15
2023-05-05T23:55:29.805Z,98672.89
2023-05-05T23:57:57.379Z,98667.95
